Flight Track Log - Related Links

Times and Time Zones

All times are in EDT time to prevent confusion due to time zone crossing. See the N81AU flight status page for this flight to view local times or setup timezone preferences in your user account.

Time Position Orientation Groundspeed Altitude Reporting Facility
EDT Latitude Longitude Course Direction KTS MPH feet Rate Location/Type
Tue 02:09:00 PM 33.8677 -85.5832 174° South  Level Estimated
Tue 02:10:45 PM 34.0058 -85.5750 171° South 126 145 4,600  Level Atlanta Center
Tue 02:11:45 PM 33.9747 -85.5719 175° South 116 133 5,400 800 Climbing Atlanta Center
Tue 02:12:45 PM 33.9414 -85.5661 172° South 116 133 6,200 750 Climbing Atlanta Center
Tue 02:13:45 PM 33.9142 -85.5608 171° South 117 135 6,900 500 Climbing Atlanta Center
Tue 02:14:45 PM 33.8811 -85.5503 165° South 122 140 7,200 100 Climbing Atlanta Center
Tue 02:15:45 PM 33.8372 -85.5544 185° South 128 147 7,100 -50 Descending Atlanta Center
Tue 02:16:45 PM 33.7975 -85.5586 185° South 145 167 7,100 50 Level Atlanta Center
Tue 02:17:45 PM 33.7556 -85.5578 179° South 151 174 7,200  Climbing Atlanta Center
Tue 02:18:45 PM 33.7139 -85.5522 174° South 151 174 7,100 -50 Descending Atlanta Center
Tue 02:19:45 PM 33.6744 -85.5489 176° South 151 174 7,100  Level Atlanta Center
Tue 02:20:45 PM 33.6328 -85.5458 177° South 151 174 7,100  Level Atlanta Center
Tue 02:21:45 PM 33.5931 -85.5425 176° South 151 174 7,100  Level Atlanta Center
Tue 02:22:45 PM 33.5533 -85.5369 173° South 151 174 7,100  Level Atlanta Center
Tue 02:23:45 PM 33.5097 -85.5311 174° South 151 174 7,100  Level Atlanta Center
Tue 02:24:45 PM 33.4700 -85.5281 176° South 151 174 7,100  Level Atlanta Center
Tue 02:25:45 PM 33.4306 -85.5272 179° South 151 174 7,100  Level Atlanta Center
Tue 02:26:45 PM 33.3950 -85.5217 173° South 151 174 7,100  Level Atlanta Center
Tue 02:27:45 PM 33.3511 -85.5208 179° South 151 174 7,100 -50 Level Atlanta Center
Tue 02:28:45 PM 33.3053 -85.5178 177° South 151 174 7,000 -50 Descending Atlanta Center
Tue 02:29:45 PM 33.2656 -85.5144 176° South 156 180 7,000  Level Atlanta Center
Tue 02:30:45 PM 33.2219 -85.5064 171° South 156 180 7,000  Level Atlanta Center
Tue 02:31:45 PM 33.1825 -85.5008 173° South 156 180 7,000  Level Atlanta Center
Tue 02:32:45 PM 33.1408 -85.4903 168° South 156 180 7,000 -100 Level Atlanta Center
Tue 02:33:45 PM 33.0992 -85.4819 170° South 156 180 6,800 -400 Descending Atlanta Center
Tue 02:34:45 PM 33.0594 -85.4764 173° South 156 180 6,200 -550 Descending Atlanta Center
Tue 02:35:45 PM 33.0178 -85.4683 171° South 161 185 5,700 -550 Descending Atlanta Center
Tue 02:36:45 PM 32.9761 -85.4603 171° South 161 185 5,100 -603 Descending Atlanta Center
Tue 02:38:54 PM 32.8833 -85.4500 175° South 156 180 3,800 -603 Descending Atlanta TRACON
Tue 02:39:54 PM 32.8500 -85.4333 157° South 139 160 3,200 -450 Descending Atlanta TRACON
Tue 02:40:54 PM 32.8167 -85.4333 180° South 122 140 2,900 -400 Descending Atlanta TRACON
Tue 02:41:54 PM 32.7833 -85.4333 180° South 114 131 2,400 -263 Descending Atlanta TRACON
Tue 02:42:48 PM 32.7500 -85.4333 180° South 99 114 2,400  Level Atlanta TRACON
Tue 02:43:48 PM 32.7333 -85.4333 180° South 97 112 2,400  Level Atlanta TRACON
Tue 02:44:42 PM 32.7000 -85.4333 180° South 97 112 2,400 -316 Level Atlanta TRACON
Tue 02:45:42 PM 32.6667 -85.4333 180° South 102 117 1,800 -400 Descending Atlanta TRACON
Tue 02:46:42 PM 32.6500 -85.4333 180° South 106 122 1,600 -200 Descending Atlanta TRACON

Login

Don't have an account? Register now (free) for customized features, flight alerts, and more!